Guthrie, Indiana
Current Conditions -  °F | °C
As of 4:53 PM on Thursday 23 Oct 2014 (Local Time) from KBMG Reporting Station
Clear Clear  
Wind Chill: 60°   Ceiling: Unl
Heat Index: 60°   Visibility: 10mi
Dew Point: 39°   Wind: 0mph
Humidity: 46%   Direction: NA
Pressure: 30.14"   Gusts: NA
Location:  38.8737°N, 86.4563°W
Report Text: KBMG 232053Z 00000KT 10SM CLR 16/04 A3014 RMK AO2 SLP207 T01560039 56020
Loading
Personal Weather Stations






























Interactive Weather Map
Tropical Storm Tracking
New forecast layout! Learn more

10-Day Weather Forecast

Advertisements
Track Severe Weather on mobile